Time;durP1;ratioP1;P1;durP2;ratioP2;P2;SDS_P1;SDS_P2;PMS_P1;PMS_P2;Temp;Humidity;BMP_temperature;BMP_pressure;BME280_temperature;BME280_humidity;BME280_pressure;Samples;Min_cycle;Max_cycle;Signal;HPM_P1;HPM_P2
2022/03/01 00:00:07;;;;;;;;;42.33;38.00;;;;;10.88;45.19;101906.53;6257667;22;45236;-87
2022/03/01 00:02:32;;;;;;;;;36.33;34.67;;;;;10.72;45.24;101888.25;6230204;22;45490;-87
2022/03/01 00:04:58;;;;;;;;;42.67;38.33;;;;;10.86;45.47;101917.97;6228782;22;46934;-86
2022/03/01 00:07:23;;;;;;;;;44.67;37.33;;;;;10.86;45.62;101918.88;6256944;22;45357;-86
2022/03/01 00:09:49;;;;;;;;;42.67;38.00;;;;;10.78;45.33;101905.31;6230266;22;45559;-86
2022/03/01 00:15:37;;;;;;;;;34.00;31.00;;;;;10.78;45.22;101918.63;6258563;22;46140;-86
2022/03/01 00:18:02;;;;;;;;;39.00;32.00;;;;;10.74;45.38;101902.53;6231015;22;45355;-86
2022/03/01 00:20:28;;;;;;;;;41.00;37.67;;;;;10.74;44.99;101902.53;6256824;22;45266;-87
2022/03/01 00:22:54;;;;;;;;;39.00;36.67;;;;;10.77;45.34;101907.94;6229615;22;45374;-87
2022/03/01 00:25:19;;;;;;;;;41.50;38.75;;;;;10.66;45.50;101893.38;6254558;22;46848;-87
2022/03/01 00:27:44;;;;;;;;;40.00;36.00;;;;;10.54;45.92;101868.22;6228396;22;45271;-86
2022/03/01 00:30:11;;;;;;;;;38.00;36.67;;;;;10.71;45.47;101898.00;6229369;22;45304;-87
2022/03/01 00:32:38;;;;;;;;;46.75;37.50;;;;;10.79;45.59;101890.28;6229680;22;45454;-86
2022/03/01 00:35:04;;;;;;;;;42.67;37.00;;;;;10.68;45.55;101897.91;6229144;22;47210;-86
2022/03/01 00:37:29;;;;;;;;;32.33;28.67;;;;;10.61;45.70;101894.16;6228751;22;45820;-87
2022/03/01 00:39:55;;;;;;;;;39.00;37.00;;;;;10.63;45.48;101896.88;6256967;22;45251;-87
2022/03/01 00:42:20;;;;;;;;;40.33;37.00;;;;;10.61;45.78;101890.59;6228661;22;45508;-86
2022/03/01 00:44:45;;;;;;;;;40.67;37.00;;;;;10.64;45.31;101901.31;6229105;22;46597;-88
2022/03/01 00:47:11;;;;;;;;;38.25;33.25;;;;;10.63;45.84;101899.53;6228263;22;45744;-85
2022/03/01 00:49:36;;;;;;;;;44.75;38.00;;;;;10.55;45.84;101893.06;6255382;22;44821;-86
2022/03/01 00:52:02;;;;;;;;;40.00;36.67;;;;;10.50;45.67;101871.63;6256729;22;45366;-87
2022/03/01 00:54:28;;;;;;;;;34.25;30.75;;;;;10.57;46.16;101892.25;6255031;22;46913;-87
2022/03/01 00:56:53;;;;;;;;;40.50;38.50;;;;;10.56;46.23;101897.50;6228506;22;45383;-86
2022/03/01 00:59:19;;;;;;;;;45.33;37.67;;;;;10.58;46.12;101896.72;6229495;22;45447;-85
2022/03/01 01:01:44;;;;;;;;;37.00;35.33;;;;;10.54;46.12;101889.50;6229547;22;45145;-86
2022/03/01 01:04:12;;;;;;;;;40.00;36.33;;;;;10.84;46.43;101911.69;6230260;22;47876;-87
2022/03/01 01:06:38;;;;;;;;;33.67;33.00;;;;;10.68;46.22;101907.66;6254803;22;45883;-86
2022/03/01 01:12:27;;;;;;;;;41.00;36.67;;;;;10.81;46.32;101894.78;6256344;22;45266;-86
2022/03/01 01:14:52;;;;;;;;;40.67;35.33;;;;;10.59;46.87;101889.63;6229869;22;48044;-85
2022/03/01 01:17:18;;;;;;;;;47.33;40.67;;;;;10.63;46.12;101896.88;6229086;22;45602;-86
2022/03/01 01:19:43;;;;;;;;;39.33;35.00;;;;;10.60;46.82;101889.69;6257475;22;45393;-87
2022/03/01 01:24:53;;;;;;;;;35.33;31.33;;;;;10.55;46.55;101880.66;6257584;22;45385;-86
2022/03/01 01:27:18;;;;;;;;;40.67;37.67;;;;;10.56;46.18;101882.47;6229316;22;45287;-87
2022/03/01 01:29:44;;;;;;;;;30.33;24.67;;;;;10.57;46.65;101888.69;6228826;22;45555;-87
2022/03/01 01:32:10;;;;;;;;;41.00;36.33;;;;;10.56;46.96;101893.09;6229225;22;45464;-86
2022/03/01 01:34:36;;;;;;;;;42.00;37.33;;;;;10.56;47.00;101887.78;6230621;22;47251;-86
2022/03/01 01:37:01;;;;;;;;;41.00;37.67;;;;;10.50;46.59;101879.63;6229253;22;45432;-85
2022/03/01 01:39:26;;;;;;;;;38.33;33.67;;;;;10.62;46.91;101892.38;6250105;22;45318;-86
2022/03/01 01:41:52;;;;;;;;;49.67;37.33;;;;;10.54;46.67;101868.22;6287594;22;45287;-86
2022/03/01 01:47:41;;;;;;;;;46.33;38.67;;;;;10.69;46.94;101886.41;6287372;22;45731;-86
2022/03/01 01:50:08;;;;;;;;;39.00;35.67;;;;;10.61;47.08;101885.28;6285433;22;45343;-89
2022/03/01 01:52:34;;;;;;;;;37.33;35.67;;;;;10.56;46.51;101889.53;6284244;22;45354;-86
2022/03/01 01:55:00;;;;;;;;;39.00;34.33;;;;;10.53;46.81;101894.75;6283838;22;48117;-86
2022/03/01 01:57:26;;;;;;;;;42.00;36.67;;;;;10.57;47.01;101889.56;6283352;22;45551;-85
2022/03/01 01:59:54;;;;;;;;;49.33;40.00;;;;;10.62;47.21;101881.75;6286891;22;45352;-86
2022/03/01 02:02:21;;;;;;;;;37.67;34.67;;;;;10.56;47.04;101876.22;6284694;22;45350;-86
2022/03/01 02:05:33;;;;;;;;;43.33;38.00;;;;;10.80;46.79;101892.06;6288004;22;45744;-86
2022/03/01 02:07:59;;;;;;;;;44.67;38.33;;;;;10.54;47.70;101888.56;6285352;22;45460;-85
2022/03/01 02:10:24;;;;;;;;;42.00;35.00;;;;;10.51;47.32;101876.09;6285563;22;45382;-87
2022/03/01 02:12:50;;;;;;;;;35.67;33.67;;;;;10.61;47.12;101885.28;6285885;22;45425;-86
2022/03/01 02:15:15;;;;;;;;;41.67;37.67;;;;;10.62;47.16;101887.06;6259024;22;46987;-86
2022/03/01 02:17:45;;;;;;;;;38.33;34.33;;;;;10.82;47.59;101893.00;6287494;22;45340;-87
2022/03/01 02:20:13;;;;;;;;;38.00;33.33;;;;;10.70;47.43;101884.66;6286049;22;45118;-86
2022/03/01 02:22:39;;;;;;;;;47.67;39.33;;;;;10.69;47.79;101893.50;6285721;22;45363;-86
2022/03/01 02:25:06;;;;;;;;;41.33;37.00;;;;;10.76;47.27;101895.50;6284989;22;47589;-86
2022/03/01 02:30:55;;;;;;;;;44.50;36.50;;;;;10.73;47.06;101884.75;6289000;22;45402;-86
2022/03/01 02:33:20;;;;;;;;;43.67;37.33;;;;;10.64;47.07;101868.50;6286338;22;45258;-86
2022/03/01 02:35:46;;;;;;;;;40.67;37.00;;;;;10.69;46.94;101880.19;6287142;22;45351;-86
2022/03/01 02:38:11;;;;;;;;;47.00;38.33;;;;;10.71;47.51;101878.50;6286565;22;45548;-86
2022/03/01 02:40:37;;;;;;;;;44.33;40.00;;;;;10.74;47.18;101874.16;6283447;22;44826;-85
2022/03/01 02:43:02;;;;;;;;;48.67;40.00;;;;;10.70;47.17;101877.56;6288801;22;45321;-86
2022/03/01 02:45:28;;;;;;;;;43.67;40.00;;;;;10.67;47.58;101873.94;6286798;22;47582;-86
2022/03/01 02:47:54;;;;;;;;;46.33;36.00;;;;;10.76;47.73;101883.06;6288373;22;45624;-86
2022/03/01 02:50:19;;;;;;;;;37.33;35.67;;;;;10.80;48.00;101882.31;6288150;22;45278;-87
2022/03/01 02:52:45;;;;;;;;;41.00;38.67;;;;;10.93;47.49;101883.63;6289952;22;44779;-86
2022/03/01 02:55:11;;;;;;;;;49.33;38.33;;;;;10.84;46.93;101871.78;6288360;22;47125;-86
2022/03/01 02:57:36;;;;;;;;;44.00;39.33;;;;;10.78;46.55;101869.81;6261257;22;45375;-86
2022/03/01 03:00:06;;;;;;;;;35.67;32.33;;;;;10.88;46.91;101879.91;6287669;22;45290;-86
2022/03/01 03:02:31;;;;;;;;;38.00;36.33;;;;;10.71;47.04;101875.84;6287183;22;44771;-86
2022/03/01 03:04:56;;;;;;;;;43.00;38.00;;;;;10.67;46.91;101873.94;6287458;22;46926;-86
2022/03/01 03:07:22;;;;;;;;;36.67;30.33;;;;;10.64;46.89;101874.72;6287183;22;45455;-84
2022/03/01 03:09:48;;;;;;;;;47.00;39.33;;;;;10.63;47.32;101888.00;6286133;22;45413;-85
2022/03/01 03:12:13;;;;;;;;;44.00;36.67;;;;;10.64;47.63;101889.78;6286202;22;45337;-88
2022/03/01 03:14:46;;;;;;;;;37.00;36.33;;;;;10.53;47.31;101877.03;6286872;22;47581;-87
2022/03/01 03:17:11;;;;;;;;;41.00;39.00;;;;;10.56;47.36;101878.88;6260649;22;45762;-86
2022/03/01 03:19:37;;;;;;;;;38.67;37.33;;;;;10.55;47.40;101879.75;6287657;22;45320;-86
2022/03/01 03:22:03;;;;;;;;;44.00;40.00;;;;;10.60;47.08;101884.38;6261112;22;45528;-86
2022/03/01 03:24:29;;;;;;;;;44.67;41.00;;;;;10.49;47.29;101875.13;6260795;22;46833;-86
2022/03/01 03:26:54;;;;;;;;;45.67;39.67;;;;;10.57;47.35;101880.69;6288791;22;45598;-87
2022/03/01 03:29:21;;;;;;;;;42.00;37.25;;;;;10.44;47.17;101870.50;6262086;22;45347;-85
2022/03/01 03:32:36;;;;;;;;;44.33;38.33;;;;;10.72;47.35;101877.63;6291111;22;45502;-86
2022/03/01 03:35:09;;;;;;;;;44.50;40.00;;;;;10.65;47.53;101878.28;6262044;22;45281;-86
2022/03/01 03:37:35;;;;;;;;;40.67;38.67;;;;;10.38;47.94;101869.47;6261971;22;45737;-85
2022/03/01 03:40:00;;;;;;;;;49.00;41.25;;;;;10.43;48.12;101880.25;6273310;22;45735;-86
2022/03/01 03:42:26;;;;;;;;;46.50;40.00;;;;;10.25;47.66;101847.69;6288234;22;45333;-86
2022/03/01 03:44:51;;;;;;;;;49.50;44.00;;;;;10.41;48.08;101871.31;6285031;22;46766;-87
2022/03/01 03:47:17;;;;;;;;;51.25;42.25;;;;;10.38;48.11;101868.53;6284781;22;45308;-86
2022/03/01 03:49:43;;;;;;;;;51.25;42.75;;;;;10.34;47.85;101853.34;6285038;22;45542;-87
2022/03/01 03:52:09;;;;;;;;;56.00;44.25;;;;;10.33;48.11;101859.53;6288437;22;44740;-86
2022/03/01 03:54:34;;;;;;;;;55.50;43.50;;;;;10.36;48.21;101856.94;6285355;22;47859;-88
2022/03/01 03:57:08;;;;;;;;;43.75;40.50;;;;;10.50;47.40;101858.34;6286101;22;45486;-87
2022/03/01 03:59:35;;;;;;;;;46.50;40.50;;;;;10.33;48.14;101848.88;6286153;22;45463;-87
2022/03/01 04:02:05;;;;;;;;;44.00;38.50;;;;;10.47;48.49;101847.59;6287090;22;45349;-87
2022/03/01 04:04:31;;;;;;;;;48.75;42.25;;;;;10.22;47.66;101845.84;6286943;22;46941;-86
2022/03/01 04:06:56;;;;;;;;;48.00;40.25;;;;;10.23;47.65;101841.44;6288601;22;45195;-86
2022/03/01 04:09:23;;;;;;;;;48.00;42.00;;;;;10.25;48.00;101845.03;6287510;22;45289;-86
2022/03/01 04:11:48;;;;;;;;;52.00;39.33;;;;;10.11;47.69;101833.94;6285763;22;45392;-86
2022/03/01 04:14:14;;;;;;;;;40.75;38.00;;;;;10.21;48.12;101852.91;6285649;22;47156;-86
2022/03/01 04:16:42;;;;;;;;;45.33;38.33;;;;;10.21;47.79;101858.22;6287778;22;45424;-86
2022/03/01 04:19:09;;;;;;;;;44.33;39.00;;;;;10.24;48.17;101860.09;6286904;22;45400;-86
2022/03/01 04:21:34;;;;;;;;;44.33;39.00;;;;;10.08;47.91;101840.06;6288351;22;45257;-86
2022/03/01 04:24:00;;;;;;;;;44.67;38.33;;;;;10.21;48.03;101867.97;6286103;22;46743;-87
2022/03/01 04:26:26;;;;;;;;;47.33;42.00;;;;;10.23;47.65;101857.38;6286967;22;45061;-86
2022/03/01 04:28:52;;;;;;;;;45.67;40.67;;;;;10.18;47.91;101847.50;6288213;22;45305;-86
2022/03/01 04:31:20;;;;;;;;;44.00;38.33;;;;;10.35;48.19;101849.84;6289745;22;45962;-86
2022/03/01 04:33:46;;;;;;;;;44.33;37.33;;;;;10.24;47.86;101851.19;6287159;22;46747;-88
2022/03/01 04:36:11;;;;;;;;;38.00;33.00;;;;;10.23;47.25;101852.06;6287801;22;45432;-86
2022/03/01 04:38:37;;;;;;;;;47.00;40.33;;;;;10.27;47.57;101857.53;6288152;22;45425;-86
2022/03/01 04:41:03;;;;;;;;;39.50;34.50;;;;;10.32;47.52;101863.03;6286158;22;45822;-87
2022/03/01 04:43:29;;;;;;;;;48.00;41.00;;;;;10.28;46.89;101858.41;6288430;22;45270;-87
2022/03/01 04:45:57;;;;;;;;;40.67;37.67;;;;;10.37;47.25;101853.47;6288893;22;45313;-86
2022/03/01 04:48:23;;;;;;;;;47.33;41.00;;;;;10.27;47.28;101857.53;6290665;22;45455;-86
2022/03/01 04:50:50;;;;;;;;;42.00;38.33;;;;;10.27;47.51;101861.94;6287353;22;45729;-87
2022/03/01 04:53:16;;;;;;;;;41.67;37.67;;;;;10.28;47.17;101858.41;6287402;22;45374;-86
2022/03/01 04:55:41;;;;;;;;;45.75;39.25;;;;;10.29;47.57;101865.56;6289160;22;45408;-86
2022/03/01 04:58:07;;;;;;;;;52.25;43.25;;;;;10.26;47.41;101855.75;6287402;22;44819;-87
2022/03/01 05:03:55;;;;;;;;;45.50;40.75;;;;;10.45;47.06;101862.59;6287846;22;45171;-85
2022/03/01 05:06:21;;;;;;;;;46.25;40.75;;;;;10.29;47.55;101862.91;6288645;22;45495;-86
2022/03/01 05:08:46;;;;;;;;;46.00;39.00;;;;;10.19;47.69;101843.06;6287563;22;45396;-86
2022/03/01 05:11:12;;;;;;;;;47.00;38.25;;;;;10.26;47.23;101849.50;6286608;22;45365;-87
2022/03/01 05:13:37;;;;;;;;;47.33;40.00;;;;;10.24;47.61;101845.88;6284785;22;46736;-87
2022/03/01 05:16:03;;;;;;;;;38.00;34.33;;;;;10.27;47.88;101843.34;6286631;22;45451;-85
2022/03/01 05:18:29;;;;;;;;;45.33;40.00;;;;;10.26;47.87;101855.75;6288543;22;45463;-87
2022/03/01 05:20:54;;;;;;;;;45.50;40.50;;;;;10.23;47.26;101854.72;6287705;22;45349;-87
2022/03/01 05:23:19;;;;;;;;;35.33;35.33;;;;;10.25;48.59;101853.03;6287370;22;48428;-86
2022/03/01 05:25:46;;;;;;;;;53.33;39.00;;;;;10.31;48.80;101859.47;6287898;22;45421;-86
2022/03/01 05:28:12;;;;;;;;;43.50;37.50;;;;;10.44;48.33;101850.13;6286697;22;45375;-85
2022/03/01 05:30:37;;;;;;;;;40.67;37.33;;;;;10.42;48.32;101854.50;6287840;22;45353;-87
2022/03/01 05:36:25;;;;;;;;;47.33;41.67;;;;;10.50;48.66;101854.75;6286834;22;45254;-87
2022/03/01 05:38:50;;;;;;;;;41.00;38.00;;;;;10.52;48.44;101842.41;6286393;22;45361;-86
2022/03/01 05:41:18;;;;;;;;;41.67;37.00;;;;;10.69;47.56;101856.25;6256819;22;45354;-87
2022/03/01 05:43:43;;;;;;;;;43.00;38.00;;;;;10.50;48.09;101844.09;6227856;22;46766;-86
2022/03/01 05:46:08;;;;;;;;;46.67;40.33;;;;;10.52;48.45;101843.31;6228022;22;45325;-87
2022/03/01 05:48:34;;;;;;;;;45.33;39.00;;;;;10.55;47.93;101840.75;6228707;22;45359;-86
2022/03/01 05:51:01;;;;;;;;;42.50;39.00;;;;;10.46;47.39;101837.78;6228782;22;44928;-86
2022/03/01 05:53:28;;;;;;;;;49.00;40.50;;;;;10.46;48.31;101840.44;6228704;22;47240;-86
2022/03/01 05:55:55;;;;;;;;;47.75;41.25;;;;;10.49;47.79;101844.97;6228975;22;45285;-87
2022/03/01 05:58:20;;;;;;;;;39.67;38.67;;;;;10.47;48.38;101838.72;6228275;22;45415;-87
2022/03/01 06:00:45;;;;;;;;;49.33;40.67;;;;;10.51;48.16;101852.16;6229941;22;45471;-85
2022/03/01 06:03:11;;;;;;;;;48.67;40.00;;;;;10.52;48.25;101853.97;6227119;22;46886;-86
2022/03/01 06:05:36;;;;;;;;;49.00;40.00;;;;;10.47;48.38;101839.59;6254396;22;45344;-86
2022/03/01 06:08:03;;;;;;;;;47.25;40.25;;;;;10.57;48.28;101852.34;6229225;22;45346;-87
2022/03/01 06:10:28;;;;;;;;;51.00;42.00;;;;;10.65;48.41;101854.34;6229375;22;45382;-87
2022/03/01 06:12:54;;;;;;;;;42.00;37.67;;;;;10.68;48.19;101854.44;6228305;22;46089;-86
2022/03/01 06:15:20;;;;;;;;;42.67;37.67;;;;;10.67;48.79;101860.63;6228449;22;45238;-86
2022/03/01 06:17:45;;;;;;;;;55.33;44.33;;;;;10.73;48.27;101868.81;6230097;22;45795;-87
2022/03/01 06:20:12;;;;;;;;;48.75;39.75;;;;;10.78;48.10;101869.81;6257836;22;45314;-87
2022/03/01 06:22:40;;;;;;;;;50.25;41.50;;;;;10.84;48.46;101880.66;6204842;22;48088;-86
2022/03/01 06:25:07;;;;;;;;;46.00;39.00;;;;;10.85;48.95;101873.59;6229528;22;44682;-86
2022/03/01 06:27:37;;;;;;;;;40.33;36.67;;;;;11.04;48.34;101883.94;6205303;22;45537;-87
2022/03/01 06:30:07;;;;;;;;;55.00;43.75;;;;;11.08;48.42;101885.84;6231003;22;45491;-87
2022/03/01 06:32:33;;;;;;;;;48.00;40.00;;;;;10.90;48.31;101874.63;6206907;22;47827;-87
2022/03/01 06:34:59;;;;;;;;;50.67;40.67;;;;;10.96;47.67;101867.72;6232767;22;45568;-87
2022/03/01 06:37:25;;;;;;;;;47.25;39.00;;;;;11.08;47.65;101869.88;6232608;22;45267;-87
2022/03/01 06:39:53;;;;;;;;;46.00;42.25;;;;;11.01;48.27;101887.44;6248536;22;45336;-88
2022/03/01 06:42:19;;;;;;;;;47.00;39.50;;;;;10.95;48.35;101868.59;6288193;22;46864;-86
2022/03/01 06:44:44;;;;;;;;;50.25;37.50;;;;;11.08;48.49;101876.97;6287716;22;45596;-87
2022/03/01 06:47:10;;;;;;;;;52.25;42.75;;;;;11.20;48.18;101887.97;6287465;22;44857;-87
2022/03/01 06:49:36;;;;;;;;;47.67;39.67;;;;;11.23;48.23;101898.72;6286890;22;45598;-86
2022/03/01 06:52:03;;;;;;;;;48.00;40.67;;;;;11.38;48.50;101899.16;6288428;22;48087;-87
2022/03/01 06:57:56;;;;;;;;;48.00;41.00;;;;;11.61;49.25;101891.84;6291465;22;45267;-88
2022/03/01 07:00:22;;;;;;;;;51.75;43.00;;;;;11.41;49.25;101880.63;6264577;22;45324;-86
2022/03/01 07:02:47;;;;;;;;;39.00;38.00;;;;;11.52;49.45;101896.00;6288883;22;47046;-87
2022/03/01 07:05:15;;;;;;;;;42.00;37.33;;;;;11.55;49.79;101894.34;6288663;22;45304;-86
2022/03/01 07:07:41;;;;;;;;;41.50;38.50;;;;;11.51;49.70;101894.19;6290534;22;45558;-86
2022/03/01 07:10:11;;;;;;;;;49.75;39.25;;;;;11.59;49.70;101892.66;6290298;22;45310;-86
2022/03/01 07:12:39;;;;;;;;;52.25;43.00;;;;;11.51;49.70;101895.13;6291144;22;45822;-86
2022/03/01 07:15:06;;;;;;;;;40.67;37.00;;;;;11.49;49.97;101912.81;6290095;22;45486;-86
2022/03/01 07:17:31;;;;;;;;;46.25;41.50;;;;;11.48;49.30;101902.13;6262442;22;45629;-87
2022/03/01 07:23:19;;;;;;;;;51.75;43.25;;;;;11.37;49.33;101893.78;6290198;22;45289;-87
2022/03/01 07:25:44;;;;;;;;;48.50;41.50;;;;;11.36;48.87;101900.00;6288053;22;45437;-87
2022/03/01 07:28:10;;;;;;;;;50.75;42.50;;;;;11.27;49.29;101883.72;6288116;22;45376;-86
2022/03/01 07:30:35;;;;;;;;;48.25;40.75;;;;;11.34;48.96;101896.38;6291958;22;45438;-85
2022/03/01 07:33:01;;;;;;;;;38.25;35.75;;;;;11.17;48.23;101872.81;6287821;22;46700;-86
2022/03/01 07:35:28;;;;;;;;;44.75;39.75;;;;;11.28;48.50;101896.19;6289627;22;45293;-87
2022/03/01 07:37:55;;;;;;;;;44.00;38.75;;;;;11.31;48.53;101897.19;6289075;22;45709;-86
2022/03/01 07:40:22;;;;;;;;;45.50;41.25;;;;;11.32;48.43;101898.09;6288043;22;44809;-87
2022/03/01 07:42:48;;;;;;;;;45.00;39.25;;;;;11.30;48.63;101900.72;6288614;22;47039;-85
2022/03/01 07:45:14;;;;;;;;;45.50;40.00;;;;;11.33;48.41;101891.88;6289038;22;45243;-87
2022/03/01 07:47:39;;;;;;;;;45.25;39.00;;;;;11.40;47.45;101885.91;6289125;22;45364;-86
2022/03/01 07:50:07;;;;;;;;;47.00;38.50;;;;;11.42;47.07;101884.19;6291275;22;45198;-86
2022/03/01 07:52:47;;;;;;;;;46.00;40.25;;;;;11.46;46.91;101871.88;6291713;22;45438;-87
2022/03/01 07:55:14;;;;;;;;;48.25;38.25;;;;;11.32;46.62;101861.69;6291540;22;45346;-86
2022/03/01 07:57:40;;;;;;;;;48.00;39.00;;;;;11.51;45.96;101888.88;6289837;22;45618;-89
2022/03/01 08:00:09;;;;;;;;;47.50;40.25;;;;;11.52;46.80;101890.69;6290532;22;45213;-86
2022/03/01 08:02:37;;;;;;;;;51.50;40.00;;;;;11.67;47.17;101891.09;6290007;22;47756;-87
2022/03/01 08:05:05;;;;;;;;;47.50;42.00;;;;;11.59;47.14;101882.00;6291883;22;45474;-86
2022/03/01 08:07:31;;;;;;;;;49.25;40.50;;;;;11.51;47.40;101886.19;6292352;22;45088;-88
2022/03/01 08:09:57;;;;;;;;;54.33;39.00;;;;;11.64;47.57;101900.78;6291502;22;45423;-86
2022/03/01 08:12:25;;;;;;;;;50.50;39.50;;;;;11.69;47.00;101892.03;6291905;22;45408;-88
2022/03/01 08:14:51;;;;;;;;;50.00;42.00;;;;;11.55;46.44;101866.78;6290261;22;44874;-86
2022/03/01 08:17:17;;;;;;;;;52.25;43.00;;;;;11.79;46.35;101895.88;6290635;22;45621;-87
2022/03/01 08:19:42;;;;;;;;;46.00;41.25;;;;;11.71;46.23;101887.66;6266429;22;45349;-87
2022/03/01 08:22:15;;;;;;;;;51.50;42.50;;;;;12.05;46.56;101898.38;6290895;22;47174;-85
2022/03/01 08:32:28;;;;;;;;;51.75;40.50;;;;;12.03;45.70;101893.00;6275886;22;45120;-85
2022/03/01 08:34:54;;;;;;;;;43.67;40.00;;;;;12.07;45.72;101892.22;6289883;22;45310;-86
2022/03/01 08:37:19;;;;;;;;;45.67;39.00;;;;;12.01;46.00;101860.97;6289293;22;45533;-86
2022/03/01 08:39:45;;;;;;;;;48.50;37.00;;;;;12.32;46.36;101898.19;6290973;22;45259;-87
2022/03/01 08:42:13;;;;;;;;;45.00;39.33;;;;;12.47;46.22;101887.91;6291257;22;45565;-86
2022/03/01 08:44:39;;;;;;;;;47.67;39.00;;;;;12.67;45.94;101901.75;6289521;22;45708;-87
2022/03/01 08:47:05;;;;;;;;;51.00;42.00;;;;;12.50;44.28;101884.41;6289722;22;45411;-87
2022/03/01 08:49:32;;;;;;;;;48.00;41.25;;;;;12.75;44.29;101904.59;6289379;22;45684;-87
2022/03/01 08:52:02;;;;;;;;;51.25;41.75;;;;;12.73;44.18;101895.66;6289439;22;48215;-88
2022/03/01 08:54:41;;;;;;;;;43.33;38.67;;;;;12.57;45.72;101863.25;6291576;22;45400;-87
2022/03/01 09:00:27;;;;;;;;;48.50;42.50;;;;;12.84;44.00;101896.78;6164124;23;45361;-88
2022/03/01 09:02:53;;;;;;;;;45.00;39.33;;;;;12.61;43.85;101902.50;6161158;23;46862;-88
2022/03/01 09:05:21;;;;;;;;;54.50;44.75;;;;;12.56;44.82;101890.81;6168108;23;45323;-87
2022/03/01 09:11:16;;;;;;;;;56.50;43.50;;;;;12.95;44.60;101908.63;6167956;23;45450;-86
2022/03/01 09:13:48;;;;;;;;;56.25;42.50;;;;;12.93;45.06;101891.69;6143714;23;47738;-87
2022/03/01 09:16:42;;;;;;;;;53.50;43.50;;;;;13.12;45.36;101895.66;6169049;23;45306;-87
2022/03/01 09:19:10;;;;;;;;;56.75;46.75;;;;;13.14;44.99;101882.34;6170329;23;45558;-86
2022/03/01 09:21:46;;;;;;;;;54.00;43.25;;;;;13.17;44.11;101855.72;6142551;23;45372;-86
2022/03/01 09:24:15;;;;;;;;;56.50;47.50;;;;;13.13;43.40;101880.56;6168270;23;46715;-86
2022/03/01 09:26:44;;;;;;;;;46.25;39.75;;;;;13.22;43.77;101875.38;6168911;23;45552;-86
2022/03/01 09:29:09;;;;;;;;;52.50;41.75;;;;;13.15;44.12;101873.47;6165985;23;45300;-86
2022/03/01 09:31:35;;;;;;;;;53.25;45.00;;;;;13.25;43.92;101878.13;6138383;23;45383;-86
2022/03/01 09:34:01;;;;;;;;;52.00;43.25;;;;;13.48;42.85;101889.31;6141903;23;46921;-87
2022/03/01 09:36:43;;;;;;;;;50.50;39.50;;;;;13.80;43.70;101892.63;6194018;22;45427;-85
2022/03/01 09:39:09;;;;;;;;;31.50;26.50;;;;;13.70;42.85;101881.75;6290222;22;45555;-86
2022/03/01 09:44:58;;;;;;;;;53.50;43.50;;;;;14.03;43.54;101894.84;6291767;22;45623;-87
2022/03/01 09:47:25;;;;;;;;;49.00;39.75;;;;;14.07;41.26;101891.34;6264705;22;45319;-87
2022/03/01 09:49:54;;;;;;;;;46.25;41.00;;;;;14.01;42.29;101861.81;6290458;22;44708;-86
2022/03/01 09:52:26;;;;;;;;;43.50;38.50;;;;;14.17;41.36;101871.00;6290957;22;45372;-86
2022/03/01 09:54:53;;;;;;;;;42.67;39.00;;;;;14.45;40.36;101884.88;6291434;22;45602;-86
2022/03/01 09:57:23;;;;;;;;;50.33;39.67;;;;;14.54;42.03;101883.25;6292799;22;45482;-86
2022/03/01 09:59:49;;;;;;;;;51.50;42.00;;;;;14.78;41.57;101908.63;6291627;22;44776;-86
2022/03/01 10:02:14;;;;;;;;;53.00;42.25;;;;;14.93;43.25;101903.50;6292647;22;44957;-88
2022/03/01 10:05:11;;;;;;;;;53.00;43.00;;;;;15.44;43.16;101900.63;6289826;22;46800;-87
2022/03/01 10:08:00;;;;;;;;;;;;;;;;;;;;;
2022/03/01 10:10:26;;;;;;;;;54.00;43.00;;;;;15.81;42.63;101888.56;6224872;22;67914;-87
2022/03/01 10:12:54;;;;;;;;;51.00;42.75;;;;;16.17;41.69;101906.81;6200916;22;44983;-87
2022/03/01 10:15:39;;;;;;;;;52.75;43.00;;;;;16.26;38.26;101880.94;6175843;22;47133;-88
2022/03/01 10:18:13;;;;;;;;;50.00;41.00;;;;;15.92;38.17;101862.75;6203211;22;45710;-88
2022/03/01 10:21:36;;;;;;;;;42.00;38.67;;;;;15.88;38.85;101882.41;6229290;22;45776;-87
2022/03/01 10:24:16;;;;;;;;;52.00;41.67;;;;;15.79;40.77;101890.34;6231437;22;45402;-85
2022/03/01 10:26:43;;;;;;;;;51.00;42.25;;;;;15.58;37.85;101864.16;6204173;22;46766;-85
2022/03/01 10:29:12;;;;;;;;;56.25;46.50;;;;;15.68;39.61;101841.03;6204120;22;45379;-86
2022/03/01 10:31:43;;;;;;;;;51.67;40.00;;;;;16.15;41.52;101892.50;6202729;22;45327;-86
2022/03/01 10:34:11;;;;;;;;;46.50;40.25;;;;;16.23;41.50;101878.25;6202809;22;45059;-86
2022/03/01 10:36:46;;;;;;;;;42.50;38.25;;;;;16.25;41.28;101846.97;6227154;22;46982;-86
2022/03/01 10:39:34;;;;;;;;;53.75;45.00;;;;;16.33;37.81;101885.50;6227657;22;45342;-87
2022/03/01 10:42:04;;;;;;;;;52.00;43.25;;;;;16.02;39.72;101866.44;6226260;22;45750;-87
2022/03/01 10:44:30;;;;;;;;;57.25;44.50;;;;;15.78;39.79;101870.66;6290695;22;44811;-86
2022/03/01 10:47:01;;;;;;;;;54.00;44.00;;;;;15.86;38.86;101862.72;6290371;22;47808;-83
2022/03/01 10:49:36;;;;;;;;;56.33;46.67;;;;;15.93;39.98;101882.44;6290945;22;44841;-85
2022/03/01 10:52:22;;;;;;;;;55.25;43.25;;;;;15.64;39.44;101833.84;6290243;22;44776;-86
2022/03/01 10:54:59;;;;;;;;;55.50;45.25;;;;;15.77;39.17;101874.25;6257782;22;45493;-86
2022/03/01 10:57:25;;;;;;;;;49.67;42.33;;;;;15.82;39.25;101860.00;6231937;22;46912;-87
2022/03/01 11:00:34;;;;;;;;;57.25;46.50;;;;;16.20;38.97;101863.94;6232926;22;45468;-86
2022/03/01 11:03:07;;;;;;;;;51.67;42.00;;;;;16.26;38.89;101867.53;6234005;22;45339;-85
2022/03/01 11:05:39;;;;;;;;;56.00;45.67;;;;;16.35;40.24;101864.94;6236356;22;44865;-87
2022/03/01 11:08:27;;;;;;;;;54.25;43.25;;;;;16.17;37.69;101833.47;6234287;22;47030;-87
2022/03/01 11:13:52;;;;;;;;;50.67;42.00;;;;;16.46;37.19;101843.53;6259584;22;44832;-87
2022/03/01 11:16:45;;;;;;;;;49.67;42.00;;;;;16.59;37.74;101854.38;6233185;22;44945;-87
2022/03/01 11:19:34;;;;;;;;;45.67;37.33;;;;;16.48;38.63;101850.75;6232882;22;46942;-87
2022/03/01 11:22:24;;;;;;;;;51.33;39.00;;;;;16.33;39.70;101834.50;6233162;22;45417;-87
2022/03/01 11:24:50;;;;;;;;;44.33;39.33;;;;;16.24;37.80;101853.19;6233636;22;45694;-86
2022/03/01 11:27:49;;;;;;;;;44.00;37.33;;;;;16.19;36.52;101840.63;6260822;22;45820;-87
2022/03/01 11:31:20;;;;;;;;;;;;;;;;;;;;;
2022/03/01 11:37:31;;;;;;;;;41.00;36.67;;;;;15.89;39.98;101826.94;6199290;23;45336;-85
2022/03/01 11:43:54;;;;;;;;;46.33;36.33;;;;;16.07;39.80;101835.16;6149618;22;45371;-85
2022/03/01 11:46:48;;;;;;;;;;;;;;;;;;;;;
2022/03/01 11:50:04;;;;;;;;;43.33;37.33;;;;;16.12;36.81;101827.19;6195624;23;68098;-87
2022/03/01 11:52:45;;;;;;;;;41.67;35.33;;;;;15.93;38.90;101823.41;6171587;23;45480;-85
2022/03/01 11:55:14;;;;;;;;;40.67;36.33;;;;;15.95;39.69;101786.75;6171274;23;47110;-84
2022/03/01 11:57:40;;;;;;;;;33.67;29.67;;;;;16.15;40.24;101806.59;6197305;22;45432;-85
2022/03/01 12:40:04;;;;;;;;;47.67;38.67;;;;;18.46;37.67;101769.75;6315695;22;46803;-88
2022/03/01 12:42:41;;;;;;;;;41.67;34.00;;;;;18.36;36.53;101762.56;6293074;22;45363;-87
2022/03/01 12:53:55;;;;;;;;;36.00;28.67;;;;;18.52;37.03;101764.34;6136799;22;44988;-86
2022/03/01 12:59:40;;;;;;;;;28.33;27.33;;;;;18.71;35.15;101715.78;6228599;22;45462;-86
2022/03/01 13:02:07;;;;;;;;;24.67;24.00;;;;;18.68;35.54;101770.56;6228222;22;45746;-85
2022/03/01 13:04:38;;;;;;;;;29.33;27.33;;;;;18.65;35.82;101710.44;6200308;22;44912;-83
2022/03/01 13:07:07;;;;;;;;;25.67;25.33;;;;;18.82;36.00;101757.09;6226871;22;45467;-83
2022/03/01 13:09:38;;;;;;;;;25.00;24.33;;;;;19.04;35.48;101751.59;6200986;22;45676;-85
2022/03/01 13:12:04;;;;;;;;;38.00;32.67;;;;;18.90;36.40;101752.56;6200708;22;47639;-84